x

Yucatan Basin - 120 Nm Ese Of Cozumel, Mx (42056) Wave Buoy

1:50 - Thu 18th Sep 2014 All times are CDT. -5 hours from GMT.

  • Sig Wave height 1.0ft
  • Swell Direction
  • Peak Period 6s
  • Average Period 4s
  • Wind
    11mph, 13mph gusts
  • Sea Temp 85°f
  • Aire Temp 83°f
  • Sea Pressure 1012.4mb
  •  Yucatan Basin - 120 Nm Ese Of Cozumel, Mx
  •  Yucatan Basin - 120 Nm Ese Of Cozumel, Mx

More Historic Weather Station data

Upgrade to MSW Pro to gain access to the past 30 days of data for over 8000 Wavebouys and Weather Stations around the globe.

Join Pro

Comparision Forecast

View Surf forecast
   
jue 09/18 1:50 1ft 6s 4s 11 13 mph 1012.4mb 85f 83f
12:50 1ft 7s 5s 11 13 mph 1013.1mb 85f 83f
11:50 1ft 7s 5s 9 11 mph 1013.6mb 85f 83f
10:50 1ft 7s 5s 11 13 mph 1013.8mb 85f 83f
9:50 1ft 7s 5s 9 13 mph 1013.9mb 84f 83f
8:50 1ft 7s 5s 9 11 mph 1013.6mb 84f 83f
7:50 1ft 5s 5s 9
mph
1013.1mb 84f 83f
6:50 1ft 6s 5s 7
mph
1012.5mb 84f 83f
5:50 1ft 7s 5s 4 7 mph 1012mb 84f 82f
4:50 1.3ft 6s 5s 7
mph
1011.3mb 84f 82f
3:50 1.3ft 7s 5s 7
mph
1011.4mb 84f 83f
2:50 1.3ft 7s 5s 7
mph
1011.7mb 84f 83f
1:50 1.3ft 6s 5s 7 9 mph 1012.4mb 84f 83f
12:50 1.3ft 7s 5s 9
mph
1013.1mb 84f 83f
mié 09/17 11:50 1.3ft 6s 5s 9 11 mph 1014.1mb 85f 83f
10:50 1.3ft 7s 5s 9 11 mph 1014.4mb 85f 83f
9:50 1.3ft 7s 5s 9 11 mph 1014.4mb 85f 84f
8:50 1.6ft 7s 5s 9 11 mph 1014mb 85f 83f
7:50 1.6ft 6s 5s 7 9 mph 1013.2mb 85f 84f
6:50 1.6ft 6s 5s 4 7 mph 1012.6mb 85f 84f
5:50 1.6ft 8s 5s 4 7 mph 1012mb 86f 84f
4:50 1.6ft 5s 5s 4 7 mph 1011.9mb 87f 84f
3:50 1.6ft 6s 5s 4 7 mph 1011.9mb 87f 84f
2:50 1.6ft 6s 5s 4 7 mph 1012.3mb 87f 84f
1:50 1.6ft 8s 5s 4 7 mph 1013.1mb 87f 84f
12:50 1.6ft 6s 5s 4 7 mph 1013.6mb 87f 83f
11:50 1.6ft 6s 5s 4 7 mph 1014.3mb 86f 83f
10:50 1.6ft 8s 5s 4 7 mph 1014.7mb 86f 83f
9:50 1.6ft 7s 5s 7 9 mph 1014.9mb 85f 83f
8:50 1.6ft 7s 5s 4
mph
1014.8mb 85f 83f
7:50 2ft 6s 5s 4 7 mph 1014.2mb 85f 83f
6:50 2ft 6s 5s 2 4 mph 1013.6mb 85f 83f
5:50 2ft 6s 5s 4 7 mph 1013.3mb 85f 83f
4:50 2ft 7s 5s 4
mph
1013.2mb 85f 83f
3:50 2ft 8s 5s 7 9 mph 1013.1mb 85f 83f
2:50 2.5ft 7s 5s 7 9 mph 1013.2mb 85f 83f
1:50 2.5ft 7s 5s 9 11 mph 1014mb 85f 83f
12:50 2.5ft 6s 5s 9 11 mph 1014.6mb 86f 83f
mar 09/16 11:50 2.5ft 7s 5s 9 11 mph 1015.1mb 86f 83f
10:50 2.5ft 6s 5s 11 13 mph 1015.3mb 86f 84f
9:50 2.5ft 8s 5s 11
mph
1015.2mb 86f 84f
8:50 2.5ft 8s 5s 11
mph
1014.8mb 86f 84f
7:50 3ft 7s 5s 9 11 mph 1014mb 86f 84f
6:50 3ft 8s 5s 9 11 mph 1013.6mb 86f 84f
5:50 3ft 7s 5s 9 13 mph 1012.9mb 86f 84f
4:50 2.5ft 8s 5s 9 11 mph 1013.1mb 86f 84f
3:50 2.5ft 7s 5s 9
mph
1013.2mb 86f 84f
2:50 2.5ft 7s 5s 9 11 mph 1013.8mb 86f 84f
1:50 3ft 7s 5s 11
mph
1014.5mb 86f 84f
12:50 3ft 7s 5s 9 13 mph 1015.3mb 86f 84f
11:50 3ft 8s 5s 13 16 mph 1015.8mb 86f 84f
10:50 3.5ft 7s 5s 13 16 mph 1016.1mb 85f 84f
9:50 3.5ft 8s 5s 16 18 mph 1016.3mb 85f 84f
8:50 3.5ft 7s 5s 11 13 mph 1016.1mb 85f 84f
7:50 3.5ft 8s 5s 11 13 mph 1015.9mb 85f 84f
6:50 4ft 7s 5s 13 16 mph 1015.6mb 85f 83f
4:50 4ft 8s 5s 13 16 mph 1015.4mb 85f 83f
3:50 4ft 7s 5s 13 16 mph 1015.3mb 85f 83f
2:50 4ft 7s 5s 13 16 mph 1015.4mb 85f 84f
1:50 4ft 8s 5s 16 18 mph 1015.6mb 85f 84f
12:50 3.5ft 6s 5s 16 18 mph 1015.9mb 85f 84f
lun 09/15 11:50 3.5ft 7s 4s 16 20 mph 1016mb 85f 84f
10:50 4ft 6s 5s 18 22 mph 1016.4mb 85f 84f
9:50 3.5ft 8s 4s 18 20 mph 1016.3mb 85f 84f
8:50 3.5ft 6s 5s 16 18 mph 1015.9mb 85f 85f
7:50 3.5ft 6s 4s 18 22 mph 1015.2mb 85f 84f
6:50 3.5ft 6s 4s 18 20 mph 1014.9mb 85f 84f
5:50 3.5ft 6s 4s 18 20 mph 1014.7mb 85f 85f
4:50 3.5ft 7s 4s 18 20 mph 1014.5mb 86f 85f
3:50 3.5ft 7s 5s 18 20 mph 1014.5mb 86f 85f
2:50 3.5ft 6s 5s 16 18 mph 1015mb 86f 85f
1:50 3.5ft 7s 5s 16 18 mph 1015.4mb 86f 85f
12:50 4ft 6s 5s 16 18 mph 1016.2mb 86f 85f
11:50 4ft 6s 5s 18 20 mph 1016.3mb 85f 85f
10:50 4ft 6s 5s 18 20 mph 1016.9mb 85f 85f
9:50 4ft 8s 5s 16 18 mph 1017mb 85f 85f
8:50 4ft 6s 5s 16 18 mph 1016.4mb 85f 84f
7:50 4.5ft 5s 5s 16 20 mph 1015.9mb 85f 84f
6:50 4.5ft 6s 5s 18 20 mph 1015.4mb 85f 84f
5:50 4.5ft 6s 5s 18 22 mph 1014.8mb 85f 84f
4:50 4.5ft 5s 5s 18 22 mph 1014.6mb 85f 84f
3:50 4.5ft 6s 5s 18 22 mph 1014.7mb 85f 84f
2:50 4.5ft 5s 5s 20 22 mph 1014.5mb 85f 84f
1:50 4.5ft 8s 5s 18 22 mph 1015.1mb 85f 84f
12:50 4.5ft 6s 5s 18 22 mph 1015.4mb 85f 84f
dom 09/14 11:50 4.5ft 5s 4s 20 25 mph 1016mb 85f 84f
10:50 4.5ft 5s 5s 20 25 mph 1016mb 85f 85f
9:50 5ft 5s 5s 22 27 mph 1015.5mb 85f 85f
8:50 4.5ft 5s 4s 22 25 mph 1014.9mb 85f 85f